Time;durP1;ratioP1;P1;durP2;ratioP2;P2;SDS_P1;SDS_P2;PMS_P1;PMS_P2;Temp;Humidity;BMP_temperature;BMP_pressure;BME280_temperature;BME280_humidity;BME280_pressure;Samples;Min_cycle;Max_cycle;Signal;HPM_P1;HPM_P2
2022/01/20 00:02:21;;;;;;;9.98;6.00;;;;;;;-8.93;76.90;100692.59;4926786;29;20084;-81
2022/01/20 00:05:03;;;;;;;7.70;4.88;;;;;;;-8.85;76.75;100686.38;4926800;29;20063;-81
2022/01/20 00:07:46;;;;;;;6.90;3.78;;;;;;;-8.61;76.54;100691.31;4926829;29;20086;-81
2022/01/20 00:27:11;;;;;;;3.67;2.10;;;;;;;-8.20;75.35;100665.28;4945188;29;20332;-81
2022/01/20 00:32:35;;;;;;;2.95;1.90;;;;;;;-8.04;75.29;100647.72;4945139;29;20369;-82
2022/01/20 00:35:20;;;;;;;3.22;1.80;;;;;;;-7.57;74.57;100677.75;4944940;29;20103;-82
2022/01/20 00:37:49;;;;;;;2.13;1.60;;;;;;;-7.55;74.44;100668.56;4944971;29;20081;-83
2022/01/20 00:40:25;;;;;;;5.63;1.77;;;;;;;-7.82;73.43;100610.25;4944846;29;20099;-83
2022/01/20 00:42:56;;;;;;;1.90;1.70;;;;;;;-7.40;73.10;100677.13;4944910;29;20402;-82
2022/01/20 00:45:26;;;;;;;4.72;1.77;;;;;;;-7.25;73.34;100689.03;4944859;29;20119;-82
2022/01/20 00:47:57;;;;;;;1.75;1.63;;;;;;;-7.42;72.77;100643.16;4944909;29;20070;-82
2022/01/20 00:50:28;;;;;;;1.77;1.55;;;;;;;-7.10;72.42;100691.63;4944937;29;20062;-82
2022/01/20 00:52:59;;;;;;;4.53;1.60;;;;;;;-7.29;71.96;100643.91;4943924;29;20087;-82
2022/01/20 00:55:32;;;;;;;3.65;2.10;;;;;;;-7.03;72.32;100683.59;4944726;29;20087;-82
2022/01/20 00:58:03;;;;;;;8.82;1.60;;;;;;;-6.95;71.46;100680.72;4961226;29;20089;-83
2022/01/20 01:00:33;;;;;;;4.03;2.00;;;;;;;-6.84;71.71;100675.41;4963808;29;20094;-83
2022/01/20 01:03:04;;;;;;;2.80;2.00;;;;;;;-6.90;70.69;100675.06;4963815;29;20051;-82
2022/01/20 01:05:42;;;;;;;3.67;2.00;;;;;;;-7.00;70.99;100646.56;4963890;29;20051;-82
2022/01/20 01:08:13;;;;;;;2.47;1.80;;;;;;;-7.08;70.58;100627.44;4963663;29;20054;-82
2022/01/20 01:10:49;;;;;;;9.10;2.20;;;;;;;-7.15;70.40;100625.31;4963617;29;20382;-82
2022/01/20 01:13:21;;;;;;;3.40;2.15;;;;;;;-7.72;70.51;100555.00;4963782;29;20242;-82
2022/01/20 01:15:52;;;;;;;3.10;1.95;;;;;;;-6.92;70.62;100651.22;4963584;29;20047;-82
2022/01/20 01:21:26;;;;;;;3.67;1.70;;;;;;;-6.53;70.24;100668.81;4963638;29;20055;-82
2022/01/20 01:23:58;;;;;;;2.00;1.80;;;;;;;-6.60;69.54;100651.44;4963485;29;20054;-82
2022/01/20 01:26:30;;;;;;;3.75;2.42;;;;;;;-6.58;69.52;100665.13;4963392;29;20545;-81
2022/01/20 01:29:05;;;;;;;3.22;2.00;;;;;;;-6.75;69.22;100650.56;4963210;29;20118;-83
2022/01/20 01:31:38;;;;;;;2.35;2.15;;;;;;;-6.68;69.15;100617.09;4963240;29;20058;-80
2022/01/20 01:34:12;;;;;;;1.45;1.35;;;;;;;-6.80;68.73;100603.66;4963129;29;20063;-82
2022/01/20 01:36:57;;;;;;;4.25;1.90;;;;;;;-6.47;69.10;100652.16;4963404;29;20089;-83
2022/01/20 01:39:30;;;;;;;1.58;1.40;;;;;;;-6.48;68.75;100651.28;4963143;29;20319;-83
2022/01/20 01:42:03;;;;;;;2.42;1.70;;;;;;;-6.72;68.85;100620.22;4963333;29;20166;-83
2022/01/20 01:44:34;;;;;;;3.15;2.15;;;;;;;-6.60;68.57;100628.56;4963339;29;20114;-83
2022/01/20 01:47:05;;;;;;;3.05;1.80;;;;;;;-6.69;68.32;100604.28;4962871;29;20058;-83
2022/01/20 01:49:36;;;;;;;2.15;1.70;;;;;;;-6.63;68.49;100625.84;4963110;29;20336;-83
2022/01/20 01:52:07;;;;;;;1.73;1.60;;;;;;;-6.68;69.04;100622.19;4963205;29;20058;-83
2022/01/20 01:54:38;;;;;;;4.10;1.80;;;;;;;-6.58;69.15;100639.72;4962951;29;20090;-82
2022/01/20 01:57:10;;;;;;;1.90;1.70;;;;;;;-6.90;69.05;100578.53;4963141;29;20051;-82
2022/01/20 01:59:41;;;;;;;3.08;1.70;;;;;;;-6.82;68.76;100572.22;4963406;29;20087;-82
2022/01/20 02:02:12;;;;;;;4.28;1.50;;;;;;;-6.25;68.82;100639.88;4964066;28;20047;-83
2022/01/20 02:04:43;;;;;;;2.58;1.60;;;;;;;-6.16;68.22;100630.25;4967913;29;20054;-82
2022/01/20 02:07:36;;;;;;;1.95;1.40;;;;;;;-6.21;67.74;100621.47;4968493;29;20071;-82
2022/01/20 02:18:44;;;;;;;2.72;1.50;;;;;;;-6.74;67.84;100515.06;4983211;28;20050;-82
2022/01/20 02:21:18;;;;;;;6.65;1.65;;;;;;;-5.98;67.88;100619.34;4964106;28;20043;-82
2022/01/20 02:23:50;;;;;;;5.00;1.67;;;;;;;-6.54;67.94;100519.63;4963615;28;20032;-81
2022/01/20 02:26:20;;;;;;;6.55;2.88;;;;;;;-5.97;67.96;100626.19;4963367;28;20038;-82
2022/01/20 02:28:54;;;;;;;4.65;2.40;;;;;;;-6.12;68.28;100604.16;4963208;28;20027;-81
2022/01/20 02:31:25;;;;;;;2.83;2.22;;;;;;;-6.39;68.54;100561.94;4953640;29;20051;-81
2022/01/20 02:33:57;;;;;;;4.53;1.73;;;;;;;-6.73;68.92;100532.09;4952216;29;20279;-81
2022/01/20 02:36:31;;;;;;;2.17;1.60;;;;;;;-6.33;69.04;100587.72;4950769;29;20055;-81
2022/01/20 02:39:08;;;;;;;2.90;1.70;;;;;;;-6.67;68.90;100527.34;4950517;29;20095;-81
2022/01/20 02:47:17;;;;;;;5.68;1.90;;;;;;;-6.25;70.28;100594.13;4947633;29;20086;-81
2022/01/20 02:49:48;;;;;;;3.85;1.77;;;;;;;-6.39;70.18;100560.31;4947612;29;20300;-81
2022/01/20 02:52:20;;;;;;;1.77;1.60;;;;;;;-6.45;70.16;100533.66;4947335;29;20477;-81
2022/01/20 02:54:54;;;;;;;2.17;1.70;;;;;;;-5.88;70.21;100611.38;4947289;29;20065;-81
2022/01/20 02:57:25;;;;;;;2.88;1.67;;;;;;;-6.15;69.71;100540.41;4947125;29;20212;-81
2022/01/20 02:59:56;;;;;;;3.28;1.80;;;;;;;-5.74;69.83;100595.22;4947153;29;20284;-81
2022/01/20 03:02:26;;;;;;;3.83;1.83;;;;;;;-5.57;69.76;100602.88;4947060;29;20070;-81
2022/01/20 03:04:57;;;;;;;6.45;2.30;;;;;;;-5.56;69.70;100589.34;4946798;29;20086;-81
2022/01/20 03:07:30;;;;;;;2.50;1.80;;;;;;;-5.51;69.38;100598.97;4946844;29;20051;-81
2022/01/20 03:10:01;;;;;;;3.90;1.77;;;;;;;-5.92;69.29;100533.13;4946973;29;20070;-81
2022/01/20 03:12:31;;;;;;;2.08;1.60;;;;;;;-5.44;69.13;100590.00;4947190;29;20062;-81
2022/01/20 03:15:03;;;;;;;4.28;2.15;;;;;;;-5.38;68.91;100595.41;4946352;29;20410;-81
2022/01/20 03:17:34;;;;;;;2.92;1.92;;;;;;;-5.54;69.11;100582.66;4948222;29;20239;-81
2022/01/20 03:20:06;;;;;;;2.80;1.73;;;;;;;-5.70;69.57;100566.56;4947904;29;20048;-81
2022/01/20 03:22:38;;;;;;;2.00;1.80;;;;;;;-5.50;69.45;100564.22;4948307;29;20053;-81
2022/01/20 03:25:11;;;;;;;5.38;1.95;;;;;;;-5.83;69.26;100477.63;4953412;29;20055;-81
2022/01/20 03:27:42;;;;;;;2.65;1.63;;;;;;;-5.39;69.53;100552.94;4962951;28;20067;-81
2022/01/20 03:30:13;;;;;;;4.07;1.80;;;;;;;-5.74;69.52;100523.94;4962950;28;20078;-81
2022/01/20 03:32:44;;;;;;;4.03;1.75;;;;;;;-5.55;69.78;100560.53;4962694;28;20054;-79
2022/01/20 03:35:15;;;;;;;4.72;1.65;;;;;;;-5.33;70.02;100578.69;4960116;29;20107;-81
2022/01/20 03:37:47;;;;;;;2.75;1.80;;;;;;;-5.29;69.85;100565.34;4960494;28;20040;-81
2022/01/20 03:40:20;;;;;;;6.30;1.92;;;;;;;-5.57;69.63;100523.94;4960516;28;20052;-81
2022/01/20 03:42:52;;;;;;;1.95;1.85;;;;;;;-5.93;69.68;100465.22;4960329;28;20035;-81
2022/01/20 03:45:26;;;;;;;2.42;1.85;;;;;;;-5.29;69.50;100555.16;4953077;28;20077;-80
2022/01/20 03:48:06;;;;;;;4.22;1.73;;;;;;;-5.14;68.94;100577.09;4948887;29;20062;-81
2022/01/20 03:53:26;;;;;;;5.93;1.75;;;;;;;-5.45;70.15;100567.88;4945615;29;20106;-81
2022/01/20 03:55:57;;;;;;;4.80;1.75;;;;;;;-5.47;70.53;100569.44;4979224;28;20058;-79
2022/01/20 03:58:28;;;;;;;1.55;1.30;;;;;;;-5.53;70.57;100564.06;4976542;28;20082;-79
2022/01/20 04:00:58;;;;;;;3.35;1.63;;;;;;;-5.67;71.23;100555.66;4955520;28;20066;-79
2022/01/20 04:03:30;;;;;;;3.47;2.60;;;;;;;-5.48;70.87;100572.81;4983293;28;20117;-79
2022/01/20 04:06:00;;;;;;;4.55;1.80;;;;;;;-5.50;70.91;100574.41;4963419;28;20059;-79
2022/01/20 04:08:34;;;;;;;2.13;1.65;;;;;;;-5.71;71.02;100539.38;4963075;28;20043;-78
2022/01/20 04:11:07;;;;;;;1.40;1.30;;;;;;;-5.63;71.29;100543.19;4964678;28;20086;-78
2022/01/20 04:13:39;;;;;;;1.77;1.42;;;;;;;-5.50;70.68;100570.16;4962650;28;20129;-79
2022/01/20 04:20:04;;;;;;;1.65;1.50;;;;;;;-6.09;71.19;100479.72;4927295;28;20122;-78
2022/01/20 04:22:38;;;;;;;3.97;1.23;;;;;;;-5.48;70.96;100567.72;4979630;28;20066;-77
2022/01/20 04:25:11;;;;;;;3.35;1.30;;;;;;;-5.71;70.92;100569.91;4975624;28;20116;-78
2022/01/20 04:27:41;;;;;;;2.90;1.40;;;;;;;-5.75;71.63;100570.53;4958743;28;20043;-78
2022/01/20 04:30:13;;;;;;;4.90;1.70;;;;;;;-5.78;71.29;100562.75;4957881;28;20044;-78
2022/01/20 04:32:44;;;;;;;6.43;2.03;;;;;;;-5.64;71.87;100582.19;4969215;28;20368;-78
2022/01/20 04:35:18;;;;;;;1.80;1.40;;;;;;;-5.68;71.66;100580.25;4966897;28;20342;-79
2022/01/20 04:37:51;;;;;;;4.10;1.60;;;;;;;-5.60;71.82;100583.22;4978898;28;20047;-79
2022/01/20 04:40:23;;;;;;;3.50;1.73;;;;;;;-5.68;71.44;100585.34;4958760;28;20082;-79
2022/01/20 04:42:54;;;;;;;1.88;1.60;;;;;;;-5.65;72.11;100590.59;4957956;28;20055;-79
2022/01/20 04:45:31;;;;;;;2.92;1.60;;;;;;;-5.97;72.69;100554.94;4957342;28;20042;-78
2022/01/20 04:48:16;;;;;;;7.65;1.85;;;;;;;-5.85;72.49;100586.97;4954846;28;20070;-77
2022/01/20 04:59:13;;;;;;;1.48;1.38;;;;;;;-5.73;73.37;100602.03;4959964;28;20062;-77
2022/01/20 05:01:46;;;;;;;4.50;1.77;;;;;;;-5.71;72.84;100597.03;4954256;28;20055;-78
2022/01/20 05:04:17;;;;;;;5.28;1.77;;;;;;;-6.03;73.21;100559.69;4954465;28;20313;-77
2022/01/20 05:06:48;;;;;;;2.83;1.42;;;;;;;-5.79;73.12;100609.34;4958063;28;20051;-77
2022/01/20 05:09:20;;;;;;;2.63;1.98;;;;;;;-6.02;73.52;100602.16;4981604;28;20090;-77
2022/01/20 05:11:59;;;;;;;3.40;1.80;;;;;;;-6.12;73.89;100595.66;4981827;28;20361;-77
2022/01/20 05:14:30;;;;;;;2.38;1.40;;;;;;;-6.20;74.45;100586.75;4972647;28;20241;-77
2022/01/20 05:17:02;;;;;;;4.55;1.60;;;;;;;-6.58;74.70;100532.09;4981287;28;20050;-77
2022/01/20 05:19:34;;;;;;;3.65;2.03;;;;;;;-6.26;75.02;100582.19;4981473;28;20057;-77
2022/01/20 05:22:05;;;;;;;3.45;1.80;;;;;;;-6.15;75.10;100598.91;4980992;28;20051;-77
2022/01/20 05:24:36;;;;;;;3.05;1.77;;;;;;;-6.21;75.07;100601.13;4977905;28;20055;-78
2022/01/20 05:27:08;;;;;;;4.28;2.47;;;;;;;-6.18;75.47;100596.22;4981812;28;20266;-77
2022/01/20 05:29:39;;;;;;;3.30;1.83;;;;;;;-6.15;75.82;100610.75;4971730;28;20238;-77
2022/01/20 05:32:10;;;;;;;4.82;1.92;;;;;;;-6.24;75.79;100600.06;4975001;28;20047;-78
2022/01/20 05:34:40;;;;;;;3.78;1.60;;;;;;;-6.19;75.72;100609.72;4967685;28;20119;-78
2022/01/20 05:37:11;;;;;;;6.50;2.00;;;;;;;-6.30;76.09;100595.53;4965036;28;20362;-78
2022/01/20 05:39:42;;;;;;;3.42;1.35;;;;;;;-6.33;75.66;100610.63;4970672;28;20042;-78
2022/01/20 05:42:14;;;;;;;3.50;1.70;;;;;;;-6.27;76.33;100610.94;4981213;28;20101;-78
2022/01/20 05:44:49;;;;;;;2.25;1.65;;;;;;;-6.30;76.35;100605.69;4981519;28;20081;-78
2022/01/20 05:47:26;;;;;;;5.70;1.95;;;;;;;-6.52;76.41;100589.22;4981262;28;20047;-78
2022/01/20 05:49:57;;;;;;;4.43;1.75;;;;;;;-6.46;76.69;100595.44;4981297;28;20105;-78
2022/01/20 05:52:27;;;;;;;4.00;1.77;;;;;;;-6.45;76.82;100615.00;4981441;28;20310;-78
2022/01/20 05:54:59;;;;;;;4.55;1.80;;;;;;;-6.38;77.10;100617.97;4981171;28;20114;-78
2022/01/20 05:57:31;;;;;;;1.65;1.50;;;;;;;-6.32;77.54;100627.63;4981359;28;20078;-78
2022/01/20 06:00:02;;;;;;;4.18;2.13;;;;;;;-6.25;77.70;100623.75;4981254;28;20046;-78
2022/01/20 06:02:36;;;;;;;3.97;1.85;;;;;;;-6.49;77.73;100582.56;4981356;28;20081;-78
2022/01/20 06:05:07;;;;;;;2.75;1.50;;;;;;;-6.15;77.54;100637.06;4980909;28;20093;-78
2022/01/20 06:07:37;;;;;;;2.38;1.45;;;;;;;-6.19;77.75;100637.72;4981507;28;20051;-79
2022/01/20 06:10:09;;;;;;;4.85;2.22;;;;;;;-6.23;78.03;100628.16;4981283;28;20055;-79
2022/01/20 06:12:41;;;;;;;2.85;1.88;;;;;;;-6.25;78.04;100634.81;4981082;28;20043;-78
2022/01/20 06:15:13;;;;;;;5.00;1.80;;;;;;;-6.32;78.49;100640.31;4980763;28;20054;-78
2022/01/20 06:17:44;;;;;;;3.25;1.50;;;;;;;-6.54;78.71;100616.22;4981189;28;20555;-78
2022/01/20 06:20:20;;;;;;;3.55;1.77;;;;;;;-6.38;79.10;100643.41;4977983;28;20065;-75
2022/01/20 06:22:51;;;;;;;6.32;1.80;;;;;;;-6.48;78.97;100636.03;4980786;28;20042;-76
2022/01/20 06:25:21;;;;;;;2.08;1.63;;;;;;;-6.44;79.07;100652.34;4959657;28;20065;-77
2022/01/20 06:27:54;;;;;;;6.78;1.90;;;;;;;-6.53;79.37;100656.09;4959715;28;20258;-77
2022/01/20 06:30:26;;;;;;;6.20;1.90;;;;;;;-6.53;79.61;100656.09;4977154;28;20054;-77
2022/01/20 06:32:56;;;;;;;3.45;1.60;;;;;;;-6.62;79.62;100642.84;4960856;28;20114;-77
2022/01/20 06:35:28;;;;;;;3.03;1.85;;;;;;;-6.83;80.05;100600.97;4967541;28;20152;-78
2022/01/20 06:37:59;;;;;;;2.90;1.90;;;;;;;-6.53;80.33;100663.72;4970491;28;20113;-80
2022/01/20 06:40:30;;;;;;;3.33;2.42;;;;;;;-6.49;80.32;100653.72;4979649;28;20047;-79
2022/01/20 06:43:04;;;;;;;6.47;1.90;;;;;;;-6.56;80.39;100649.97;4972966;28;20274;-77
2022/01/20 06:45:34;;;;;;;3.72;2.03;;;;;;;-6.75;80.49;100636.19;4975570;28;20082;-77
2022/01/20 06:48:06;;;;;;;2.80;2.10;;;;;;;-6.65;80.82;100662.16;4959125;28;20065;-77
2022/01/20 06:50:37;;;;;;;5.93;1.80;;;;;;;-6.69;81.35;100650.91;4981097;28;20046;-77
2022/01/20 06:53:07;;;;;;;4.18;1.80;;;;;;;-7.07;81.32;100593.63;4984506;28;20055;-77
2022/01/20 06:55:38;;;;;;;6.47;1.95;;;;;;;-6.69;81.59;100655.97;4984264;28;20051;-77
2022/01/20 06:58:10;;;;;;;6.05;2.20;;;;;;;-6.68;81.56;100651.81;4984566;28;20053;-77
2022/01/20 07:00:41;;;;;;;3.85;1.85;;;;;;;-7.38;81.85;100533.41;4978287;28;20081;-77
2022/01/20 07:03:12;;;;;;;2.53;2.00;;;;;;;-6.78;81.63;100637.69;4976478;28;20086;-78
2022/01/20 07:05:43;;;;;;;3.00;1.85;;;;;;;-6.75;81.75;100648.00;4984056;28;20046;-78
2022/01/20 07:08:14;;;;;;;2.90;2.30;;;;;;;-6.82;81.98;100648.44;4984316;28;20078;-78
2022/01/20 07:10:45;;;;;;;6.70;2.00;;;;;;;-6.75;81.93;100655.63;4984213;28;20114;-78
2022/01/20 07:13:17;;;;;;;9.27;2.10;;;;;;;-6.72;81.90;100660.91;4984021;28;20089;-78
2022/01/20 07:15:48;;;;;;;5.78;1.90;;;;;;;-6.75;81.82;100658.19;4983885;28;20254;-78
2022/01/20 07:18:19;;;;;;;5.43;1.90;;;;;;;-6.76;81.92;100666.59;4983716;28;20042;-78
2022/01/20 07:20:49;;;;;;;4.32;2.00;;;;;;;-7.00;82.00;100644.00;4978976;28;20042;-78
2022/01/20 07:23:20;;;;;;;6.78;2.38;;;;;;;-6.76;82.28;100674.22;4967459;28;20058;-78
2022/01/20 07:25:52;;;;;;;11.25;2.03;;;;;;;-6.93;82.27;100644.41;4983870;28;20071;-77
2022/01/20 07:28:24;;;;;;;8.20;2.33;;;;;;;-6.85;82.26;100653.34;4984073;28;20082;-79
2022/01/20 07:30:55;;;;;;;4.80;2.20;;;;;;;-7.00;82.45;100631.31;4981970;28;20046;-75
2022/01/20 07:33:26;;;;;;;4.72;2.70;;;;;;;-6.95;82.37;100637.53;4983701;28;20058;-76
2022/01/20 07:35:57;;;;;;;5.85;2.25;;;;;;;-6.95;82.48;100622.31;4981507;28;20051;-77
2022/01/20 07:38:28;;;;;;;2.90;2.03;;;;;;;-6.91;82.33;100625.00;4983830;28;20134;-77
2022/01/20 07:40:59;;;;;;;2.75;1.90;;;;;;;-6.62;82.63;100670.81;4983997;28;20082;-76
2022/01/20 07:43:32;;;;;;;6.32;1.90;;;;;;;-6.58;82.67;100680.38;4979400;28;20071;-77
2022/01/20 07:46:02;;;;;;;3.85;2.10;;;;;;;-6.68;82.59;100667.91;4982384;28;20061;-77
2022/01/20 07:48:34;;;;;;;11.68;3.38;;;;;;;-6.73;82.16;100669.31;4961560;28;20059;-77
2022/01/20 07:51:06;;;;;;;14.15;5.78;;;;;;;-6.80;82.66;100662.13;4959712;28;20051;-78
2022/01/20 07:53:37;;;;;;;17.98;7.03;;;;;;;-6.85;82.48;100663.50;4980707;28;20046;-78
2022/01/20 07:56:11;;;;;;;28.95;10.63;;;;;;;-7.09;82.49;100638.38;4962667;28;20055;-77
2022/01/20 07:58:43;;;;;;;61.25;21.70;;;;;;;-6.89;82.54;100672.59;4974769;28;20066;-77
2022/01/20 08:01:15;;;;;;;83.10;32.40;;;;;;;-6.99;82.68;100661.03;4976956;28;20187;-77
2022/01/20 08:03:46;;;;;;;45.15;20.33;;;;;;;-6.98;82.47;100665.31;4961708;28;20106;-77
2022/01/20 08:06:17;;;;;;;31.63;19.17;;;;;;;-6.85;82.54;100683.81;4965055;28;20082;-77
2022/01/20 08:08:52;;;;;;;9.00;4.70;;;;;;;-6.91;82.71;100686.88;4977208;28;20062;-77
2022/01/20 08:11:23;;;;;;;7.88;2.90;;;;;;;-7.03;82.67;100679.41;4983195;28;20043;-77
2022/01/20 08:13:56;;;;;;;9.65;2.70;;;;;;;-6.96;82.80;100685.75;4983189;28;20047;-78
2022/01/20 08:16:27;;;;;;;7.25;2.47;;;;;;;-6.92;83.15;100691.88;4976791;28;20063;-77
2022/01/20 08:18:58;;;;;;;7.45;2.65;;;;;;;-7.30;83.44;100637.97;4972693;28;20062;-77
2022/01/20 08:21:29;;;;;;;7.68;2.53;;;;;;;-7.18;83.44;100664.09;4965988;28;20055;-77
2022/01/20 08:24:00;;;;;;;7.70;2.72;;;;;;;-7.03;83.54;100699.72;4962669;28;20149;-78
2022/01/20 08:26:31;;;;;;;4.50;2.20;;;;;;;-7.04;83.56;100708.13;4973678;28;20058;-77
2022/01/20 08:29:05;;;;;;;9.77;2.13;;;;;;;-7.56;83.71;100618.63;4976744;28;20211;-79
2022/01/20 08:31:35;;;;;;;4.85;2.97;;;;;;;-7.12;83.98;100691.53;4953069;28;20044;-78
2022/01/20 08:34:06;;;;;;;6.75;3.38;;;;;;;-6.99;83.68;100704.22;4961153;28;20047;-77
2022/01/20 08:36:37;;;;;;;6.97;2.92;;;;;;;-7.49;83.54;100640.16;4958392;28;20054;-80
2022/01/20 08:42:07;;;;;;;7.07;4.30;;;;;;;-7.18;83.27;100704.75;5140981;27;20169;-63
2022/01/20 08:44:38;;;;;;;9.27;3.85;;;;;;;-7.22;83.60;100707.00;5121129;28;20245;-63
2022/01/20 08:47:16;;;;;;;7.63;4.03;;;;;;;-7.34;83.43;100691.00;5121595;28;20123;-63
2022/01/20 08:49:48;;;;;;;8.63;3.47;;;;;;;-7.56;83.64;100663.41;5120841;28;20119;-63
2022/01/20 08:52:19;;;;;;;15.30;5.75;;;;;;;-7.30;83.94;100703.09;5121251;28;20066;-63
2022/01/20 08:54:50;;;;;;;20.20;9.48;;;;;;;-7.28;84.17;100701.53;5117043;28;20059;-65
2022/01/20 08:57:23;;;;;;;27.27;11.77;;;;;;;-7.32;84.20;100690.31;5118107;28;20058;-63
2022/01/20 08:59:54;;;;;;;24.38;12.30;;;;;;;-7.97;84.07;100594.06;5119134;28;20051;-63
2022/01/20 09:02:25;;;;;;;9.32;5.53;;;;;;;-7.38;84.34;100695.88;5119447;28;20086;-63
2022/01/20 09:04:56;;;;;;;10.68;3.92;;;;;;;-7.33;84.38;100702.91;5120151;28;20073;-63
2022/01/20 09:07:27;;;;;;;6.55;4.05;;;;;;;-7.27;84.08;100713.44;5119860;28;20062;-63
2022/01/20 09:10:03;;;;;;;7.55;3.33;;;;;;;-7.39;84.21;100694.16;5120147;28;20059;-63
2022/01/20 09:15:31;;;;;;;5.47;2.88;;;;;;;-7.16;84.23;100707.38;5120041;28;20089;-63
2022/01/20 09:18:03;;;;;;;5.30;3.00;;;;;;;-7.49;83.98;100661.31;5119460;28;20055;-63
2022/01/20 09:20:35;;;;;;;5.30;3.42;;;;;;;-7.30;83.91;100698.03;5119823;28;20055;-63
2022/01/20 09:23:07;;;;;;;8.95;3.97;;;;;;;-7.31;84.01;100698.78;5120472;28;20052;-63
2022/01/20 09:25:38;;;;;;;18.25;9.85;;;;;;;-7.55;83.69;100676.19;5120644;28;20057;-64
2022/01/20 09:28:11;;;;;;;13.23;4.32;;;;;;;-7.49;83.47;100712.09;5120453;28;20082;-63
2022/01/20 09:30:43;;;;;;;18.92;6.93;;;;;;;-7.49;83.81;100706.16;5120346;28;20050;-64
2022/01/20 09:33:23;;;;;;;6.85;3.42;;;;;;;-7.46;84.14;100707.22;5119726;28;20075;-64
2022/01/20 09:35:54;;;;;;;6.45;3.08;;;;;;;-7.49;84.05;100701.94;5118306;28;20064;-64
2022/01/20 09:38:25;;;;;;;8.68;5.28;;;;;;;-8.21;83.59;100582.38;5119511;28;20060;-63
2022/01/20 09:40:56;;;;;;;7.80;2.45;;;;;;;-7.47;83.66;100705.47;5119157;28;20082;-63
2022/01/20 09:43:29;;;;;;;5.28;2.42;;;;;;;-7.44;83.73;100705.69;5119562;28;20131;-63
2022/01/20 09:46:01;;;;;;;10.80;4.35;;;;;;;-7.30;83.29;100713.25;5120404;28;20051;-63
2022/01/20 09:48:33;;;;;;;4.00;2.50;;;;;;;-7.62;83.06;100658.81;5120280;28;20055;-64
2022/01/20 09:51:04;;;;;;;11.77;3.70;;;;;;;-7.28;82.80;100716.78;5119993;28;20102;-63
2022/01/20 09:53:37;;;;;;;14.98;4.28;;;;;;;-7.26;82.69;100710.09;5105509;28;20113;-64
2022/01/20 09:56:08;;;;;;;27.25;7.88;;;;;;;-7.27;82.59;100714.31;5107273;28;20297;-63
2022/01/20 09:58:41;;;;;;;19.90;5.53;;;;;;;-7.24;82.34;100713.63;5106247;28;20051;-64
2022/01/20 10:01:12;;;;;;;15.02;5.57;;;;;;;-7.25;82.33;100706.81;5105595;28;20052;-64
2022/01/20 10:03:49;;;;;;;12.85;3.83;;;;;;;-7.25;81.88;100706.81;5106373;28;20052;-64
2022/01/20 10:06:20;;;;;;;8.60;3.13;;;;;;;-7.34;81.69;100696.06;5105356;28;20055;-64
2022/01/20 10:09:00;;;;;;;10.60;3.65;;;;;;;-7.34;81.79;100698.59;5106309;28;20284;-64
2022/01/20 10:11:51;;;;;;;4.88;2.58;;;;;;;-7.24;81.27;100719.59;5106325;28;20114;-63
2022/01/20 10:14:24;;;;;;;5.95;3.30;;;;;;;-7.28;81.22;100716.78;5105431;28;20082;-64
2022/01/20 10:16:55;;;;;;;5.18;2.35;;;;;;;-7.35;80.71;100709.56;5105160;28;20051;-63
2022/01/20 10:19:29;;;;;;;8.63;2.03;;;;;;;-7.26;80.46;100715.19;5106074;28;20051;-63
2022/01/20 10:22:11;;;;;;;6.65;2.40;;;;;;;-7.28;80.40;100716.78;5105864;28;20110;-64
2022/01/20 10:24:42;;;;;;;5.68;2.10;;;;;;;-7.30;80.18;100713.25;5105474;28;20036;-64
2022/01/20 10:27:14;;;;;;;4.75;2.17;;;;;;;-7.24;79.73;100726.31;5104524;28;20465;-63
2022/01/20 10:29:57;;;;;;;7.55;3.38;;;;;;;-7.58;79.26;100676.00;5104021;28;20058;-63
2022/01/20 10:32:58;;;;;;;25.00;7.25;;;;;;;-8.01;79.34;100609.91;5104620;28;20050;-63
2022/01/20 10:35:35;;;;;;;21.10;4.93;;;;;;;-7.33;79.22;100728.31;5103764;28;20064;-63
2022/01/20 10:38:12;;;;;;;4.60;2.03;;;;;;;-7.31;79.00;100724.19;5105445;28;20051;-62
2022/01/20 10:40:51;;;;;;;3.90;1.90;;;;;;;-7.41;79.13;100705.00;5105165;28;20059;-62
2022/01/20 10:43:23;;;;;;;4.35;2.03;;;;;;;-7.31;78.92;100726.72;5102581;28;20059;-63
2022/01/20 10:46:06;;;;;;;3.85;2.20;;;;;;;-7.31;78.81;100726.72;5104803;28;20062;-64
2022/01/20 10:48:37;;;;;;;6.82;2.45;;;;;;;-7.42;78.67;100709.16;5104416;28;21014;-63
2022/01/20 10:51:17;;;;;;;9.10;2.53;;;;;;;-7.33;78.98;100728.31;5102731;28;20066;-63
2022/01/20 10:53:59;;;;;;;5.05;2.83;;;;;;;-7.31;78.85;100729.25;5104122;28;20196;-63
2022/01/20 10:56:31;;;;;;;14.32;4.25;;;;;;;-7.33;78.68;100728.31;5104689;28;20322;-64
2022/01/20 10:59:08;;;;;;;10.52;3.05;;;;;;;-7.51;79.10;100706.06;5105419;28;20094;-63
2022/01/20 11:01:41;;;;;;;9.68;2.95;;;;;;;-7.38;79.11;100731.44;5104806;28;20257;-64
2022/01/20 11:04:18;;;;;;;9.68;3.13;;;;;;;-7.38;79.08;100740.72;5103887;28;20051;-64
2022/01/20 11:06:53;;;;;;;5.72;3.05;;;;;;;-7.42;79.10;100737.09;5104147;28;20052;-63
2022/01/20 11:09:25;;;;;;;8.00;3.67;;;;;;;-7.43;78.97;100742.97;5104696;28;20078;-63
2022/01/20 11:11:58;;;;;;;10.23;3.88;;;;;;;-7.51;78.91;100718.75;5104835;28;20346;-62
2022/01/20 11:14:28;;;;;;;8.23;3.08;;;;;;;-7.32;78.78;100740.22;5104792;28;20059;-63
2022/01/20 11:17:02;;;;;;;5.18;2.22;;;;;;;-7.32;78.72;100730.94;5104838;28;20058;-63
2022/01/20 11:19:37;;;;;;;4.90;2.53;;;;;;;-7.28;78.38;100742.16;5103782;28;20070;-62
2022/01/20 11:22:11;;;;;;;5.85;2.30;;;;;;;-7.49;77.84;100714.63;5104183;28;20071;-61
2022/01/20 11:24:43;;;;;;;6.60;2.40;;;;;;;-7.40;77.82;100743.13;5102584;28;20222;-63
2022/01/20 11:27:16;;;;;;;5.70;2.15;;;;;;;-7.66;78.14;100702.53;5103365;28;20060;-62
2022/01/20 11:29:49;;;;;;;4.35;2.13;;;;;;;-7.37;77.89;100740.78;5103845;28;20062;-61
2022/01/20 11:32:23;;;;;;;8.63;2.38;;;;;;;-7.41;77.93;100736.31;5104251;28;20097;-62
2022/01/20 11:35:04;;;;;;;10.15;2.60;;;;;;;-7.66;77.42;100690.75;5102830;28;20117;-62
2022/01/20 11:37:37;;;;;;;3.88;2.08;;;;;;;-7.39;77.57;100737.31;5103643;28;20086;-62
2022/01/20 11:40:15;;;;;;;4.55;2.15;;;;;;;-7.39;77.41;100744.91;5103935;28;20070;-63
2022/01/20 11:42:58;;;;;;;60.03;19.20;;;;;;;-7.43;77.52;100750.56;5103053;28;20055;-62
2022/01/20 11:45:34;;;;;;;36.30;15.05;;;;;;;-7.48;77.40;100744.31;5104172;28;20107;-62
2022/01/20 11:48:17;;;;;;;20.85;10.30;;;;;;;-7.52;77.59;100752.53;5104097;28;20056;-62
2022/01/20 11:50:49;;;;;;;6.95;3.10;;;;;;;-7.50;77.30;100756.03;5104178;28;20086;-62
2022/01/20 11:53:22;;;;;;;7.22;2.33;;;;;;;-7.78;77.19;100701.78;5104078;28;20515;-63
2022/01/20 11:55:55;;;;;;;3.80;2.15;;;;;;;-7.77;77.16;100724.69;5086080;28;20114;-63
2022/01/20 11:58:28;;;;;;;5.00;2.20;;;;;;;-7.59;76.81;100735.13;5103810;28;20052;-63
2022/01/20 12:01:03;;;;;;;3.95;1.60;;;;;;;-7.49;76.71;100747.63;5104149;28;20112;-63
2022/01/20 12:03:38;;;;;;;4.82;2.03;;;;;;;-7.58;76.22;100729.31;5104223;28;20056;-63
2022/01/20 12:06:14;;;;;;;8.60;3.15;;;;;;;-7.45;76.55;100754.66;5103609;28;20052;-63
2022/01/20 12:08:55;;;;;;;4.30;2.17;;;;;;;-8.13;76.38;100644.63;5103250;28;20223;-63
2022/01/20 12:11:37;;;;;;;7.82;4.20;;;;;;;-7.75;76.66;100707.06;5102012;28;20628;-63
2022/01/20 12:14:09;;;;;;;6.00;3.00;;;;;;;-7.75;76.84;100722.28;5103539;28;20044;-63
2022/01/20 12:16:41;;;;;;;6.88;3.45;;;;;;;-8.15;77.35;100656.31;5103351;28;20050;-63
2022/01/20 12:19:13;;;;;;;11.95;9.30;;;;;;;-7.71;78.22;100749.56;5103510;28;20052;-63
2022/01/20 12:21:50;;;;;;;11.77;8.23;;;;;;;-7.77;78.20;100744.13;5103409;28;20047;-63
2022/01/20 12:24:21;;;;;;;3.92;2.70;;;;;;;-7.84;78.56;100733.59;5103298;28;20052;-63
2022/01/20 12:26:52;;;;;;;3.88;3.08;;;;;;;-7.97;79.30;100725.94;5103904;28;20060;-62
2022/01/20 12:29:23;;;;;;;7.85;2.42;;;;;;;-8.02;79.68;100742.53;5103795;28;20044;-62
2022/01/20 12:31:57;;;;;;;8.40;3.10;;;;;;;-8.14;79.94;100740.06;5103665;28;20059;-63
2022/01/20 12:34:29;;;;;;;3.65;2.47;;;;;;;-8.27;80.37;100715.56;5103813;28;20067;-63
2022/01/20 12:37:00;;;;;;;7.30;3.15;;;;;;;-8.20;80.46;100736.25;5103269;28;20052;-63
2022/01/20 12:39:33;;;;;;;5.10;2.50;;;;;;;-8.49;80.38;100702.28;5103795;28;20044;-62
2022/01/20 12:42:06;;;;;;;6.18;2.63;;;;;;;-8.49;80.58;100697.22;5103668;28;20043;-63
2022/01/20 12:44:47;;;;;;;6.28;2.55;;;;;;;-8.26;80.64;100745.22;5103600;28;20090;-62
2022/01/20 12:47:18;;;;;;;4.95;2.45;;;;;;;-8.28;80.94;100754.38;5103324;28;20086;-62
2022/01/20 12:49:58;;;;;;;6.30;2.50;;;;;;;-8.40;81.20;100747.66;5103360;28;20059;-63